Time;durP1;ratioP1;P1;durP2;ratioP2;P2;SDS_P1;SDS_P2;PMS_P1;PMS_P2;Temp;Humidity;BMP_temperature;BMP_pressure;BME280_temperature;BME280_humidity;BME280_pressure;Samples;Min_cycle;Max_cycle;Signal;HPM_P1;HPM_P2
2023/01/30 00:01:44;;;;;;;;;;;;;;;;;;5004059;28;20298;-51
2023/01/30 00:04:11;;;;;;;;;;;;;;;;;;5005958;28;19925;-54
2023/01/30 00:06:37;;;;;;;;;;;;;;;;;;5006475;28;19922;-52
2023/01/30 00:09:03;;;;;;;;;;;;;;;;;;5006590;28;19983;-52
2023/01/30 00:11:32;;;;;;;;;;;;;;;;;;5006723;28;19922;-56
2023/01/30 00:13:58;;;;;;;;;;;;;;;;;;5006085;28;19948;-55
2023/01/30 00:16:24;;;;;;;;;;;;;;;;;;5005269;28;20363;-56
2023/01/30 00:18:50;;;;;;;;;;;;;;;;;;4998841;28;19922;-57
2023/01/30 00:21:16;;;;;;;;;;;;;;;;;;5000139;28;19926;-56
2023/01/30 00:23:42;;;;;;;;;;;;;;;;;;5006331;28;20434;-57
2023/01/30 00:26:08;;;;;;;;;;;;;;;;;;5006106;28;19929;-56
2023/01/30 00:28:34;;;;;;;;;;;;;;;;;;5006605;28;19952;-53
2023/01/30 00:31:00;;;;;;;;;;;;;;;;;;5004836;28;20346;-57
2023/01/30 00:33:26;;;;;;;;;;;;;;;;;;5006019;28;20423;-56
2023/01/30 00:35:52;;;;;;;;;;;;;;;;;;5006275;28;20458;-57
2023/01/30 00:38:18;;;;;;;;;;;;;;;;;;5006547;28;19925;-55
2023/01/30 00:40:44;;;;;;;;;;;;;;;;;;5010021;28;19925;-56
2023/01/30 00:48:39;;;;;;;;;;;;;;;;;;5009982;28;19926;-55
2023/01/30 00:51:05;;;;;;;;;;;;;;;;;;5010161;28;19925;-56
2023/01/30 00:53:31;;;;;;;;;;;;;;;;;;5008670;28;19925;-56
2023/01/30 00:55:57;;;;;;;;;;;;;;;;;;4991825;28;20346;-56
2023/01/30 00:58:23;;;;;;;;;;;;;;;;;;5009784;28;19952;-57
2023/01/30 01:00:49;;;;;;;;;;;;;;;;;;5009175;28;19925;-57
2023/01/30 01:03:15;;;;;;;;;;;;;;;;;;5009439;28;19972;-55
2023/01/30 01:05:41;;;;;;;;;;;;;;;;;;5009135;28;20245;-56
2023/01/30 01:08:07;;;;;;;;;;;;;;;;;;5009139;28;19948;-55
2023/01/30 01:10:33;;;;;;;;;;;;;;;;;;5009991;28;19929;-56
2023/01/30 01:12:59;;;;;;;;;;;;;;;;;;5009374;28;19925;-55
2023/01/30 01:15:25;;;;;;;;;;;;;;;;;;5008976;28;19971;-57
2023/01/30 01:17:51;;;;;;;;;;;;;;;;;;5009544;28;19932;-56
2023/01/30 01:20:17;;;;;;;;;;;;;;;;;;4995319;28;19925;-57
2023/01/30 01:22:44;;;;;;;;;;;;;;;;;;5008884;28;19929;-57
2023/01/30 01:25:10;;;;;;;;;;;;;;;;;;5009048;28;20004;-57
2023/01/30 01:27:36;;;;;;;;;;;;;;;;;;5009759;28;19925;-57
2023/01/30 01:30:02;;;;;;;;;;;;;;;;;;5008790;28;20536;-54
2023/01/30 01:32:28;;;;;;;;;;;;;;;;;;5008413;28;19925;-57
2023/01/30 01:34:54;;;;;;;;;;;;;;;;;;5008943;28;19944;-56
2023/01/30 01:37:20;;;;;;;;;;;;;;;;;;5008911;28;20015;-57
2023/01/30 01:42:30;;;;;;;;;;;;;;;;;;4995528;28;19956;-57
2023/01/30 01:44:56;;;;;;;;;;;;;;;;;;5007985;28;19921;-56
2023/01/30 01:47:22;;;;;;;;;;;;;;;;;;5008997;28;19929;-57
2023/01/30 01:49:48;;;;;;;;;;;;;;;;;;5008117;28;20256;-54
2023/01/30 01:52:14;;;;;;;;;;;;;;;;;;5008103;28;20398;-52
2023/01/30 01:54:40;;;;;;;;;;;;;;;;;;5008983;28;19995;-56
2023/01/30 01:57:06;;;;;;;;;;;;;;;;;;5008760;28;20375;-52
2023/01/30 01:59:32;;;;;;;;;;;;;;;;;;5008286;28;19925;-55
2023/01/30 02:01:58;;;;;;;;;;;;;;;;;;5008878;28;19969;-55
2023/01/30 02:05:00;;;;;;;;;;;;;;;;;;5076831;23;19963;-57
2023/01/30 02:07:10;;;;;;;;;;;;;;;;;;5004939;28;20336;-57
2023/01/30 02:09:36;;;;;;;;;;;;;;;;;;4989499;28;19933;-56
2023/01/30 02:12:02;;;;;;;;;;;;;;;;;;4996601;28;19925;-55
2023/01/30 02:14:28;;;;;;;;;;;;;;;;;;4987505;28;19981;-56
2023/01/30 02:16:54;;;;;;;;;;;;;;;;;;5008792;28;19933;-55
2023/01/30 02:19:20;;;;;;;;;;;;;;;;;;4991942;28;19926;-57
2023/01/30 02:21:46;;;;;;;;;;;;;;;;;;4991270;28;19930;-56
2023/01/30 02:24:14;;;;;;;;;;;;;;;;;;4982161;28;20326;-57
2023/01/30 02:26:40;;;;;;;;;;;;;;;;;;4995641;28;19940;-57
2023/01/30 02:29:06;;;;;;;;;;;;;;;;;;4995034;28;19926;-55
2023/01/30 02:31:32;;;;;;;;;;;;;;;;;;4996069;28;19979;-51
2023/01/30 02:33:58;;;;;;;;;;;;;;;;;;5007926;28;20568;-58
2023/01/30 02:36:24;;;;;;;;;;;;;;;;;;5007789;28;19940;-56
2023/01/30 02:38:50;;;;;;;;;;;;;;;;;;5007749;28;19935;-58
2023/01/30 02:41:16;;;;;;;;;;;;;;;;;;5007386;28;19952;-56
2023/01/30 02:43:42;;;;;;;;;;;;;;;;;;5007426;28;20589;-57
2023/01/30 02:46:08;;;;;;;;;;;;;;;;;;5006395;28;20434;-57
2023/01/30 02:48:35;;;;;;;;;;;;;;;;;;5008002;28;19992;-57
2023/01/30 02:51:01;;;;;;;;;;;;;;;;;;5007442;28;20298;-57
2023/01/30 02:53:27;;;;;;;;;;;;;;;;;;5007121;28;20055;-57
2023/01/30 02:55:53;;;;;;;;;;;;;;;;;;5007892;28;20008;-57
2023/01/30 02:58:19;;;;;;;;;;;;;;;;;;5007438;28;19926;-51
2023/01/30 03:00:45;;;;;;;;;;;;;;;;;;5006333;28;19932;-56
2023/01/30 03:03:11;;;;;;;;;;;;;;;;;;4996259;28;20307;-53
2023/01/30 03:05:37;;;;;;;;;;;;;;;;;;5004029;28;19940;-57
2023/01/30 03:08:03;;;;;;;;;;;;;;;;;;5007836;28;19932;-54
2023/01/30 03:13:32;;;;;;;;;;;;;;;;;;5004574;28;19936;-57
2023/01/30 03:15:58;;;;;;;;;;;;;;;;;;5028187;28;20009;-57
2023/01/30 03:18:24;;;;;;;;;;;;;;;;;;5029409;28;20012;-58
2023/01/30 03:20:50;;;;;;;;;;;;;;;;;;5029376;28;19925;-58
2023/01/30 03:23:16;;;;;;;;;;;;;;;;;;5029895;28;20386;-56
2023/01/30 03:25:42;;;;;;;;;;;;;;;;;;5029434;28;19932;-58
2023/01/30 03:28:08;;;;;;;;;;;;;;;;;;5029001;28;19925;-56
2023/01/30 03:30:34;;;;;;;;;;;;;;;;;;5029259;28;20374;-58
2023/01/30 03:33:00;;;;;;;;;;;;;;;;;;5029415;28;19932;-56
2023/01/30 03:35:26;;;;;;;;;;;;;;;;;;5028967;28;19932;-58
2023/01/30 03:37:52;;;;;;;;;;;;;;;;;;5029274;28;20488;-58
2023/01/30 03:40:18;;;;;;;;;;;;;;;;;;5028595;28;20020;-58
2023/01/30 03:42:44;;;;;;;;;;;;;;;;;;5028538;28;20008;-57
2023/01/30 03:45:10;;;;;;;;;;;;;;;;;;5029330;28;20011;-58
2023/01/30 03:47:36;;;;;;;;;;;;;;;;;;5029023;28;19939;-57
2023/01/30 03:50:02;;;;;;;;;;;;;;;;;;5029049;28;19925;-57
2023/01/30 03:52:28;;;;;;;;;;;;;;;;;;5028448;28;20382;-57
2023/01/30 03:54:54;;;;;;;;;;;;;;;;;;5029059;28;19933;-55
2023/01/30 03:57:20;;;;;;;;;;;;;;;;;;5027994;28;19971;-57
2023/01/30 03:59:46;;;;;;;;;;;;;;;;;;5029133;28;19925;-52
2023/01/30 04:02:13;;;;;;;;;;;;;;;;;;5029400;28;20661;-58
2023/01/30 04:04:39;;;;;;;;;;;;;;;;;;5028436;28;19926;-57
2023/01/30 04:07:05;;;;;;;;;;;;;;;;;;5028866;28;19921;-57
2023/01/30 04:09:31;;;;;;;;;;;;;;;;;;5028727;28;20416;-57
2023/01/30 04:11:57;;;;;;;;;;;;;;;;;;5026889;28;20032;-58
2023/01/30 04:14:23;;;;;;;;;;;;;;;;;;5032363;28;20016;-58
2023/01/30 04:16:49;;;;;;;;;;;;;;;;;;5033028;28;20482;-55
2023/01/30 04:19:15;;;;;;;;;;;;;;;;;;5033144;28;19921;-57
2023/01/30 04:21:41;;;;;;;;;;;;;;;;;;5032494;28;19971;-54
2023/01/30 04:24:07;;;;;;;;;;;;;;;;;;5032928;28;20012;-58
2023/01/30 04:26:33;;;;;;;;;;;;;;;;;;5031752;28;20392;-56
2023/01/30 04:28:59;;;;;;;;;;;;;;;;;;5032571;28;19968;-58
2023/01/30 04:31:25;;;;;;;;;;;;;;;;;;5032108;28;20333;-56
2023/01/30 04:33:51;;;;;;;;;;;;;;;;;;5032406;28;19925;-58
2023/01/30 04:36:17;;;;;;;;;;;;;;;;;;5032086;28;19929;-55
2023/01/30 04:38:43;;;;;;;;;;;;;;;;;;5032662;28;20287;-58
2023/01/30 04:41:09;;;;;;;;;;;;;;;;;;5031504;28;20016;-57
2023/01/30 04:43:35;;;;;;;;;;;;;;;;;;5032095;28;20029;-57
2023/01/30 04:46:01;;;;;;;;;;;;;;;;;;5032116;28;20333;-57
2023/01/30 04:48:27;;;;;;;;;;;;;;;;;;5031960;28;19940;-50
2023/01/30 04:50:53;;;;;;;;;;;;;;;;;;5031893;28;19929;-57
2023/01/30 04:53:19;;;;;;;;;;;;;;;;;;5032083;28;19967;-52
2023/01/30 04:55:45;;;;;;;;;;;;;;;;;;5032590;28;19964;-57
2023/01/30 04:58:11;;;;;;;;;;;;;;;;;;5031207;28;20325;-56
2023/01/30 05:00:37;;;;;;;;;;;;;;;;;;5031680;28;19929;-58
2023/01/30 05:03:03;;;;;;;;;;;;;;;;;;5031458;28;19925;-57
2023/01/30 05:05:29;;;;;;;;;;;;;;;;;;5031367;28;19932;-57
2023/01/30 05:07:55;;;;;;;;;;;;;;;;;;5032183;28;19926;-57
2023/01/30 05:10:21;;;;;;;;;;;;;;;;;;5031731;28;19925;-58
2023/01/30 05:12:47;;;;;;;;;;;;;;;;;;5031018;28;20370;-56
2023/01/30 05:15:13;;;;;;;;;;;;;;;;;;5030646;28;19933;-57
2023/01/30 05:17:39;;;;;;;;;;;;;;;;;;5031535;28;19925;-58
2023/01/30 05:20:05;;;;;;;;;;;;;;;;;;5031500;28;19952;-53
2023/01/30 05:22:31;;;;;;;;;;;;;;;;;;5013361;28;19925;-57
2023/01/30 05:24:57;;;;;;;;;;;;;;;;;;5031020;28;19983;-53
2023/01/30 05:27:23;;;;;;;;;;;;;;;;;;5029854;28;20424;-58
2023/01/30 05:29:49;;;;;;;;;;;;;;;;;;5031262;28;19932;-56
2023/01/30 05:32:15;;;;;;;;;;;;;;;;;;5031784;28;19997;-58
2023/01/30 05:34:41;;;;;;;;;;;;;;;;;;5030887;28;20725;-57
2023/01/30 05:37:07;;;;;;;;;;;;;;;;;;5031598;28;20420;-58
2023/01/30 05:39:33;;;;;;;;;;;;;;;;;;5030652;28;19925;-57
2023/01/30 05:41:59;;;;;;;;;;;;;;;;;;5030300;28;19972;-58
2023/01/30 05:44:25;;;;;;;;;;;;;;;;;;5031281;28;19925;-57
2023/01/30 05:46:51;;;;;;;;;;;;;;;;;;5031028;28;19963;-58
2023/01/30 05:49:17;;;;;;;;;;;;;;;;;;5031025;28;20363;-56
2023/01/30 05:51:43;;;;;;;;;;;;;;;;;;5031222;28;19925;-56
2023/01/30 05:54:09;;;;;;;;;;;;;;;;;;5030781;28;19970;-57
2023/01/30 05:56:35;;;;;;;;;;;;;;;;;;5029229;28;20301;-58
2023/01/30 05:59:01;;;;;;;;;;;;;;;;;;5030709;28;19925;-57
2023/01/30 06:01:27;;;;;;;;;;;;;;;;;;5030167;28;19926;-56
2023/01/30 06:03:53;;;;;;;;;;;;;;;;;;5030517;28;19947;-58
2023/01/30 06:06:19;;;;;;;;;;;;;;;;;;5030446;28;20008;-58
2023/01/30 06:08:45;;;;;;;;;;;;;;;;;;5031039;28;20347;-58
2023/01/30 06:11:11;;;;;;;;;;;;;;;;;;5026199;28;19926;-57
2023/01/30 06:13:38;;;;;;;;;;;;;;;;;;5029498;28;19933;-59
2023/01/30 06:16:04;;;;;;;;;;;;;;;;;;5030282;28;19979;-56
2023/01/30 06:18:30;;;;;;;;;;;;;;;;;;5027754;28;19932;-57
2023/01/30 06:20:56;;;;;;;;;;;;;;;;;;5013006;28;20333;-57
2023/01/30 06:23:23;;;;;;;;;;;;;;;;;;5029815;28;19925;-56
2023/01/30 06:25:49;;;;;;;;;;;;;;;;;;5026864;28;19925;-53
2023/01/30 06:28:15;;;;;;;;;;;;;;;;;;5029507;28;20382;-56
2023/01/30 06:30:41;;;;;;;;;;;;;;;;;;5025253;28;19972;-55
2023/01/30 06:33:07;;;;;;;;;;;;;;;;;;5030518;28;20241;-57
2023/01/30 06:35:33;;;;;;;;;;;;;;;;;;5029753;28;19932;-57
2023/01/30 06:37:59;;;;;;;;;;;;;;;;;;5029541;28;20379;-57
2023/01/30 06:40:25;;;;;;;;;;;;;;;;;;5029161;28;19932;-57
2023/01/30 06:42:51;;;;;;;;;;;;;;;;;;5029177;28;19933;-56
2023/01/30 06:45:17;;;;;;;;;;;;;;;;;;5027312;28;19924;-54
2023/01/30 06:47:43;;;;;;;;;;;;;;;;;;5030077;28;19932;-57
2023/01/30 06:50:09;;;;;;;;;;;;;;;;;;5029846;28;19925;-57
2023/01/30 06:52:35;;;;;;;;;;;;;;;;;;5027744;28;19920;-55
2023/01/30 06:55:01;;;;;;;;;;;;;;;;;;5028199;28;19941;-55
2023/01/30 06:57:27;;;;;;;;;;;;;;;;;;5026782;28;19929;-55
2023/01/30 06:59:53;;;;;;;;;;;;;;;;;;5028390;28;20350;-56
2023/01/30 07:02:19;;;;;;;;;;;;;;;;;;5026830;28;19925;-55
2023/01/30 07:04:45;;;;;;;;;;;;;;;;;;5028049;28;19924;-57
2023/01/30 07:07:11;;;;;;;;;;;;;;;;;;5009072;28;20449;-56
2023/01/30 07:09:37;;;;;;;;;;;;;;;;;;5028471;28;20437;-56
2023/01/30 07:12:03;;;;;;;;;;;;;;;;;;5026488;28;19925;-56
2023/01/30 07:14:29;;;;;;;;;;;;;;;;;;5026866;28;19964;-57
2023/01/30 07:16:55;;;;;;;;;;;;;;;;;;5025891;28;20331;-57
2023/01/30 07:19:21;;;;;;;;;;;;;;;;;;5027114;28;19940;-57
2023/01/30 07:21:47;;;;;;;;;;;;;;;;;;5027668;28;19984;-57
2023/01/30 07:24:13;;;;;;;;;;;;;;;;;;5027719;28;20016;-57
2023/01/30 07:26:39;;;;;;;;;;;;;;;;;;5027005;28;20378;-57
2023/01/30 07:29:05;;;;;;;;;;;;;;;;;;5027776;28;19925;-50
2023/01/30 07:31:31;;;;;;;;;;;;;;;;;;5026731;28;19933;-57
2023/01/30 07:33:57;;;;;;;;;;;;;;;;;;5027586;28;20285;-55
2023/01/30 07:36:23;;;;;;;;;;;;;;;;;;5027213;28;19926;-54
2023/01/30 07:38:49;;;;;;;;;;;;;;;;;;5027284;28;19926;-55
2023/01/30 07:41:15;;;;;;;;;;;;;;;;;;5025970;28;19925;-57
2023/01/30 07:43:41;;;;;;;;;;;;;;;;;;5026816;28;19948;-56
2023/01/30 07:46:07;;;;;;;;;;;;;;;;;;5026635;28;19933;-57
2023/01/30 07:48:33;;;;;;;;;;;;;;;;;;5026311;28;19925;-56
2023/01/30 07:50:59;;;;;;;;;;;;;;;;;;5026581;28;19926;-57
2023/01/30 07:53:25;;;;;;;;;;;;;;;;;;5026999;28;20378;-57
2023/01/30 07:55:51;;;;;;;;;;;;;;;;;;5026268;28;20012;-57
2023/01/30 07:58:17;;;;;;;;;;;;;;;;;;5008318;28;20397;-56
2023/01/30 08:00:43;;;;;;;;;;;;;;;;;;5027220;28;19925;-57
2023/01/30 08:03:09;;;;;;;;;;;;;;;;;;5026868;28;19930;-56
2023/01/30 08:05:35;;;;;;;;;;;;;;;;;;5026770;28;19925;-56
2023/01/30 08:08:01;;;;;;;;;;;;;;;;;;5027063;28;19925;-57
2023/01/30 08:10:27;;;;;;;;;;;;;;;;;;5025490;28;19983;-54
2023/01/30 08:12:53;;;;;;;;;;;;;;;;;;5026050;28;20594;-57
2023/01/30 08:15:19;;;;;;;;;;;;;;;;;;5026340;28;19929;-56
2023/01/30 08:17:45;;;;;;;;;;;;;;;;;;5027504;28;20334;-52
2023/01/30 08:20:15;;;;;;;;;;;;;;;;;;5026983;28;19979;-56
2023/01/30 08:22:41;;;;;;;;;;;;;;;;;;5025829;28;20349;-57
2023/01/30 08:25:07;;;;;;;;;;;;;;;;;;5027400;28;20013;-57
2023/01/30 08:27:33;;;;;;;;;;;;;;;;;;5025637;28;20020;-51
2023/01/30 08:29:59;;;;;;;;;;;;;;;;;;5026878;28;20008;-57
2023/01/30 08:32:25;;;;;;;;;;;;;;;;;;5026169;28;19925;-56
2023/01/30 08:34:51;;;;;;;;;;;;;;;;;;5027155;28;19951;-57
2023/01/30 08:37:17;;;;;;;;;;;;;;;;;;5026762;28;19933;-53
2023/01/30 08:39:43;;;;;;;;;;;;;;;;;;5027436;28;19925;-57
2023/01/30 08:42:09;;;;;;;;;;;;;;;;;;5026132;28;20024;-55
2023/01/30 08:44:35;;;;;;;;;;;;;;;;;;5026431;28;20083;-57
2023/01/30 08:47:01;;;;;;;;;;;;;;;;;;5026976;28;19925;-56
2023/01/30 08:49:27;;;;;;;;;;;;;;;;;;5026602;28;19925;-57
2023/01/30 08:51:53;;;;;;;;;;;;;;;;;;5027187;28;20326;-56
2023/01/30 08:54:19;;;;;;;;;;;;;;;;;;5026506;28;19932;-57
2023/01/30 08:56:45;;;;;;;;;;;;;;;;;;5024360;28;19934;-57
2023/01/30 08:59:11;;;;;;;;;;;;;;;;;;5027599;28;19925;-57
2023/01/30 09:01:37;;;;;;;;;;;;;;;;;;5013014;28;19933;-57
2023/01/30 09:04:03;;;;;;;;;;;;;;;;;;5030222;28;19925;-52
2023/01/30 09:06:29;;;;;;;;;;;;;;;;;;5029856;28;20430;-57
2023/01/30 09:08:55;;;;;;;;;;;;;;;;;;5030640;28;19965;-55
2023/01/30 09:11:21;;;;;;;;;;;;;;;;;;5028985;28;19932;-56
2023/01/30 09:13:47;;;;;;;;;;;;;;;;;;5030105;28;20280;-53
2023/01/30 09:16:13;;;;;;;;;;;;;;;;;;5030614;28;19925;-57
2023/01/30 09:18:39;;;;;;;;;;;;;;;;;;5029532;28;20287;-57
2023/01/30 09:21:06;;;;;;;;;;;;;;;;;;5029772;28;20012;-50
2023/01/30 09:23:32;;;;;;;;;;;;;;;;;;5029576;28;19960;-56
2023/01/30 09:25:59;;;;;;;;;;;;;;;;;;5029146;28;20349;-56
2023/01/30 09:28:25;;;;;;;;;;;;;;;;;;5029377;28;19975;-52
2023/01/30 09:30:51;;;;;;;;;;;;;;;;;;5029663;28;19969;-57
2023/01/30 09:33:19;;;;;;;;;;;;;;;;;;5029309;28;20325;-54
2023/01/30 09:35:45;;;;;;;;;;;;;;;;;;5029979;28;20386;-57
2023/01/30 09:38:11;;;;;;;;;;;;;;;;;;5029695;28;19934;-57
2023/01/30 09:40:38;;;;;;;;;;;;;;;;;;5028465;28;19929;-56
2023/01/30 09:43:04;;;;;;;;;;;;;;;;;;5028777;28;20363;-57
2023/01/30 09:45:30;;;;;;;;;;;;;;;;;;5029660;28;20007;-53
2023/01/30 09:47:56;;;;;;;;;;;;;;;;;;5029652;28;20385;-57
2023/01/30 09:50:22;;;;;;;;;;;;;;;;;;5028992;28;19971;-54
2023/01/30 09:52:50;;;;;;;;;;;;;;;;;;5028748;28;19936;-56
2023/01/30 09:55:16;;;;;;;;;;;;;;;;;;5029039;28;20345;-56
2023/01/30 09:57:42;;;;;;;;;;;;;;;;;;5028744;28;20815;-56
2023/01/30 10:00:08;;;;;;;;;;;;;;;;;;5029230;28;19933;-57
2023/01/30 10:02:34;;;;;;;;;;;;;;;;;;5028582;28;20007;-56
2023/01/30 10:05:02;;;;;;;;;;;;;;;;;;5029243;28;20074;-57
2023/01/30 10:07:28;;;;;;;;;;;;;;;;;;5029260;28;20413;-56
2023/01/30 10:09:54;;;;;;;;;;;;;;;;;;5028501;28;19929;-57
2023/01/30 10:12:20;;;;;;;;;;;;;;;;;;5027303;28;20010;-51
2023/01/30 10:14:46;;;;;;;;;;;;;;;;;;5029398;28;20041;-58
2023/01/30 10:17:12;;;;;;;;;;;;;;;;;;5029286;28;20391;-56
2023/01/30 10:19:38;;;;;;;;;;;;;;;;;;5028532;28;20422;-58
2023/01/30 10:22:04;;;;;;;;;;;;;;;;;;5028669;28;20033;-56
2023/01/30 10:24:30;;;;;;;;;;;;;;;;;;5028395;28;19970;-57
2023/01/30 10:26:56;;;;;;;;;;;;;;;;;;5028085;28;19933;-56
2023/01/30 10:29:22;;;;;;;;;;;;;;;;;;5028675;28;19925;-56
2023/01/30 10:31:48;;;;;;;;;;;;;;;;;;5028736;28;20299;-56
2023/01/30 10:34:14;;;;;;;;;;;;;;;;;;5028668;28;19932;-57
2023/01/30 10:36:40;;;;;;;;;;;;;;;;;;5028785;28;19925;-55
2023/01/30 10:39:06;;;;;;;;;;;;;;;;;;5028659;28;19921;-53
2023/01/30 10:41:32;;;;;;;;;;;;;;;;;;5027252;28;20016;-57
2023/01/30 10:43:58;;;;;;;;;;;;;;;;;;5028081;28;20380;-54
2023/01/30 10:46:24;;;;;;;;;;;;;;;;;;5028099;28;19921;-57
2023/01/30 10:48:50;;;;;;;;;;;;;;;;;;5028563;28;19925;-51
2023/01/30 10:51:16;;;;;;;;;;;;;;;;;;5028392;28;19936;-56
2023/01/30 10:53:42;;;;;;;;;;;;;;;;;;5028373;28;19933;-57
2023/01/30 10:56:08;;;;;;;;;;;;;;;;;;5027373;28;19933;-56
2023/01/30 10:58:34;;;;;;;;;;;;;;;;;;5028164;28;19925;-57
2023/01/30 11:01:00;;;;;;;;;;;;;;;;;;5027871;28;19925;-58
2023/01/30 11:03:26;;;;;;;;;;;;;;;;;;5027664;28;19932;-57
2023/01/30 11:05:52;;;;;;;;;;;;;;;;;;5028421;28;19926;-58
2023/01/30 11:08:18;;;;;;;;;;;;;;;;;;5027461;28;19934;-56
2023/01/30 11:10:44;;;;;;;;;;;;;;;;;;5027450;28;19925;-53
2023/01/30 11:13:10;;;;;;;;;;;;;;;;;;5027531;28;20348;-57
2023/01/30 11:15:36;;;;;;;;;;;;;;;;;;5027878;28;19931;-55
2023/01/30 11:18:02;;;;;;;;;;;;;;;;;;5028015;28;19924;-57
2023/01/30 11:20:28;;;;;;;;;;;;;;;;;;5026839;28;20329;-56
2023/01/30 11:22:55;;;;;;;;;;;;;;;;;;5027401;28;19964;-56
2023/01/30 11:25:21;;;;;;;;;;;;;;;;;;5027198;28;20004;-56
2023/01/30 11:27:47;;;;;;;;;;;;;;;;;;5027872;28;20028;-52
2023/01/30 11:30:13;;;;;;;;;;;;;;;;;;5027819;28;20033;-56
2023/01/30 11:32:39;;;;;;;;;;;;;;;;;;5027484;28;19952;-57
2023/01/30 11:35:05;;;;;;;;;;;;;;;;;;5027385;28;19925;-57
2023/01/30 11:37:31;;;;;;;;;;;;;;;;;;5027078;28;20294;-57
2023/01/30 11:39:57;;;;;;;;;;;;;;;;;;5026480;28;20383;-57
2023/01/30 11:42:23;;;;;;;;;;;;;;;;;;5027246;28;19964;-57
2023/01/30 11:44:49;;;;;;;;;;;;;;;;;;5027128;28;19987;-57
2023/01/30 11:47:15;;;;;;;;;;;;;;;;;;5027815;28;19925;-57
2023/01/30 11:49:41;;;;;;;;;;;;;;;;;;5027071;28;19925;-56
2023/01/30 11:52:07;;;;;;;;;;;;;;;;;;5027867;28;19936;-57
2023/01/30 11:54:33;;;;;;;;;;;;;;;;;;5025943;28;20317;-55
2023/01/30 11:56:59;;;;;;;;;;;;;;;;;;5026533;28;20302;-57
2023/01/30 11:59:26;;;;;;;;;;;;;;;;;;5026918;28;20409;-57
2023/01/30 12:01:52;;;;;;;;;;;;;;;;;;5025574;28;19947;-58
2023/01/30 12:04:19;;;;;;;;;;;;;;;;;;5026067;28;20299;-56
2023/01/30 12:06:45;;;;;;;;;;;;;;;;;;5027450;28;19921;-56
2023/01/30 12:09:11;;;;;;;;;;;;;;;;;;5026014;28;19940;-56
2023/01/30 12:11:44;;;;;;;;;;;;;;;;;;5023911;28;19937;-56
2023/01/30 12:14:10;;;;;;;;;;;;;;;;;;5024670;28;20390;-56
2023/01/30 12:16:36;;;;;;;;;;;;;;;;;;5026301;28;19932;-57
2023/01/30 12:19:02;;;;;;;;;;;;;;;;;;5026033;28;19940;-57
2023/01/30 12:21:28;;;;;;;;;;;;;;;;;;5026398;28;19931;-57
2023/01/30 12:23:54;;;;;;;;;;;;;;;;;;5026829;28;20007;-56
2023/01/30 12:26:20;;;;;;;;;;;;;;;;;;5024686;28;20418;-56
2023/01/30 12:28:46;;;;;;;;;;;;;;;;;;5026290;28;19931;-57
2023/01/30 12:31:12;;;;;;;;;;;;;;;;;;5026687;28;19925;-53
2023/01/30 12:33:38;;;;;;;;;;;;;;;;;;5026591;28;20019;-56
2023/01/30 12:36:04;;;;;;;;;;;;;;;;;;5029477;28;21412;-55
2023/01/30 12:38:30;;;;;;;;;;;;;;;;;;5029741;28;20430;-57
2023/01/30 12:40:56;;;;;;;;;;;;;;;;;;5027955;28;19968;-56
2023/01/30 12:43:22;;;;;;;;;;;;;;;;;;5029822;28;19933;-57
2023/01/30 12:45:48;;;;;;;;;;;;;;;;;;5029954;28;20390;-57
2023/01/30 12:48:14;;;;;;;;;;;;;;;;;;5030947;28;20486;-57
2023/01/30 12:50:40;;;;;;;;;;;;;;;;;;5028935;28;20020;-58
2023/01/30 12:53:06;;;;;;;;;;;;;;;;;;5030369;28;19929;-57
2023/01/30 12:55:32;;;;;;;;;;;;;;;;;;5028759;28;20299;-57
2023/01/30 12:57:58;;;;;;;;;;;;;;;;;;5029626;28;20436;-52
2023/01/30 13:00:24;;;;;;;;;;;;;;;;;;5030165;28;20602;-57
2023/01/30 13:02:50;;;;;;;;;;;;;;;;;;5030189;28;20349;-56
2023/01/30 13:05:20;;;;;;;;;;;;;;;;;;5030500;28;20299;-55
2023/01/30 13:07:46;;;;;;;;;;;;;;;;;;5030149;28;19921;-57
2023/01/30 13:10:12;;;;;;;;;;;;;;;;;;5029997;28;19925;-56
2023/01/30 13:12:38;;;;;;;;;;;;;;;;;;5029367;28;19933;-56
2023/01/30 13:15:04;;;;;;;;;;;;;;;;;;5028276;28;19925;-57
2023/01/30 13:17:30;;;;;;;;;;;;;;;;;;5029959;28;19925;-57
2023/01/30 13:19:56;;;;;;;;;;;;;;;;;;5030456;28;20362;-52
2023/01/30 13:22:22;;;;;;;;;;;;;;;;;;5029540;28;19934;-56
2023/01/30 13:24:48;;;;;;;;;;;;;;;;;;5029239;28;19932;-52
2023/01/30 13:27:14;;;;;;;;;;;;;;;;;;5030141;28;20465;-57
2023/01/30 13:29:40;;;;;;;;;;;;;;;;;;5029790;28;19929;-55
2023/01/30 13:32:06;;;;;;;;;;;;;;;;;;5029664;28;19928;-57
2023/01/30 13:34:32;;;;;;;;;;;;;;;;;;5029059;28;20256;-57
2023/01/30 13:36:58;;;;;;;;;;;;;;;;;;5029734;28;20401;-57
2023/01/30 13:39:24;;;;;;;;;;;;;;;;;;5028719;28;19932;-57
2023/01/30 13:41:50;;;;;;;;;;;;;;;;;;5028649;28;19933;-57
2023/01/30 13:44:16;;;;;;;;;;;;;;;;;;5029326;28;19925;-57
2023/01/30 13:46:42;;;;;;;;;;;;;;;;;;5028874;28;19980;-57
2023/01/30 13:49:08;;;;;;;;;;;;;;;;;;5029367;28;19990;-57
2023/01/30 13:51:34;;;;;;;;;;;;;;;;;;5023111;28;20012;-53
2023/01/30 13:54:00;;;;;;;;;;;;;;;;;;5008507;28;19929;-56
2023/01/30 13:56:26;;;;;;;;;;;;;;;;;;5026044;28;19936;-56
2023/01/30 13:58:52;;;;;;;;;;;;;;;;;;5026869;28;19948;-57
2023/01/30 14:01:19;;;;;;;;;;;;;;;;;;5002031;28;19929;-57
2023/01/30 14:03:45;;;;;;;;;;;;;;;;;;5027116;28;19975;-55
2023/01/30 14:06:13;;;;;;;;;;;;;;;;;;5026693;28;19944;-56
2023/01/30 14:08:39;;;;;;;;;;;;;;;;;;5026507;28;19936;-57
2023/01/30 14:11:05;;;;;;;;;;;;;;;;;;5025663;28;19929;-56
2023/01/30 14:13:31;;;;;;;;;;;;;;;;;;5025367;28;19929;-55
2023/01/30 14:15:57;;;;;;;;;;;;;;;;;;5026637;28;19929;-55
2023/01/30 14:18:23;;;;;;;;;;;;;;;;;;5025524;28;20306;-55
2023/01/30 14:20:49;;;;;;;;;;;;;;;;;;5023798;28;20401;-56
2023/01/30 14:23:15;;;;;;;;;;;;;;;;;;5005998;28;20379;-57
2023/01/30 14:25:41;;;;;;;;;;;;;;;;;;5022669;28;20693;-57
2023/01/30 14:28:07;;;;;;;;;;;;;;;;;;5026555;28;19933;-57
2023/01/30 14:30:33;;;;;;;;;;;;;;;;;;5026013;28;19925;-57
2023/01/30 14:32:59;;;;;;;;;;;;;;;;;;5026039;28;20386;-55
2023/01/30 14:35:25;;;;;;;;;;;;;;;;;;5021557;28;19961;-57
2023/01/30 14:37:51;;;;;;;;;;;;;;;;;;5020814;28;20007;-56
2023/01/30 14:40:17;;;;;;;;;;;;;;;;;;5028324;28;19970;-53
2023/01/30 14:42:43;;;;;;;;;;;;;;;;;;5028634;28;20360;-57
2023/01/30 14:45:09;;;;;;;;;;;;;;;;;;5029020;28;19933;-57
2023/01/30 14:47:35;;;;;;;;;;;;;;;;;;5027216;28;19925;-57
2023/01/30 14:50:01;;;;;;;;;;;;;;;;;;5028199;28;19963;-57
2023/01/30 14:52:27;;;;;;;;;;;;;;;;;;5027356;28;20326;-57
2023/01/30 14:54:54;;;;;;;;;;;;;;;;;;5027008;28;19931;-57
2023/01/30 14:57:20;;;;;;;;;;;;;;;;;;5026656;28;19925;-54
2023/01/30 14:59:47;;;;;;;;;;;;;;;;;;5026317;28;19937;-56
2023/01/30 15:02:13;;;;;;;;;;;;;;;;;;5028020;28;19929;-57
2023/01/30 15:04:39;;;;;;;;;;;;;;;;;;5025897;28;19947;-56
2023/01/30 15:07:06;;;;;;;;;;;;;;;;;;5028235;28;20209;-57
2023/01/30 15:09:32;;;;;;;;;;;;;;;;;;5026667;28;20378;-56
2023/01/30 15:11:58;;;;;;;;;;;;;;;;;;5027560;28;19925;-56
2023/01/30 15:14:24;;;;;;;;;;;;;;;;;;5028086;28;20302;-56
2023/01/30 15:16:51;;;;;;;;;;;;;;;;;;5026986;28;19941;-57
2023/01/30 15:19:17;;;;;;;;;;;;;;;;;;5026802;28;20019;-55
2023/01/30 15:21:43;;;;;;;;;;;;;;;;;;5027452;28;20426;-54
2023/01/30 15:24:09;;;;;;;;;;;;;;;;;;5027568;28;20027;-57
2023/01/30 15:26:35;;;;;;;;;;;;;;;;;;5025636;28;20011;-56
2023/01/30 15:29:01;;;;;;;;;;;;;;;;;;5027024;28;19926;-57
2023/01/30 15:31:27;;;;;;;;;;;;;;;;;;5026807;28;20421;-57
2023/01/30 15:33:53;;;;;;;;;;;;;;;;;;5023821;28;19925;-57
2023/01/30 15:36:19;;;;;;;;;;;;;;;;;;5026671;28;19925;-57
2023/01/30 15:38:45;;;;;;;;;;;;;;;;;;5027535;28;20004;-58
2023/01/30 15:41:11;;;;;;;;;;;;;;;;;;5026292;28;20066;-56
2023/01/30 15:43:37;;;;;;;;;;;;;;;;;;5026194;28;20452;-57
2023/01/30 15:46:03;;;;;;;;;;;;;;;;;;5027137;28;19971;-57
2023/01/30 15:48:29;;;;;;;;;;;;;;;;;;5026689;28;19931;-55
2023/01/30 15:50:55;;;;;;;;;;;;;;;;;;5027181;28;20015;-56
2023/01/30 15:53:21;;;;;;;;;;;;;;;;;;5026240;28;19984;-57
2023/01/30 15:55:47;;;;;;;;;;;;;;;;;;5025832;28;20450;-54
2023/01/30 15:58:13;;;;;;;;;;;;;;;;;;5027686;28;20067;-57
2023/01/30 16:00:39;;;;;;;;;;;;;;;;;;5026452;28;19925;-57
2023/01/30 16:03:05;;;;;;;;;;;;;;;;;;5026659;28;19932;-56
2023/01/30 16:05:31;;;;;;;;;;;;;;;;;;5022601;28;20011;-57
2023/01/30 16:07:57;;;;;;;;;;;;;;;;;;5027036;28;20472;-56
2023/01/30 16:10:23;;;;;;;;;;;;;;;;;;5029873;28;20402;-55
2023/01/30 16:12:49;;;;;;;;;;;;;;;;;;5030478;28;19932;-57
2023/01/30 16:15:15;;;;;;;;;;;;;;;;;;5030575;28;19925;-54
2023/01/30 16:17:41;;;;;;;;;;;;;;;;;;5030856;28;20682;-57
2023/01/30 16:20:07;;;;;;;;;;;;;;;;;;5030412;28;20329;-56
2023/01/30 16:22:33;;;;;;;;;;;;;;;;;;5030629;28;19971;-57
2023/01/30 16:24:59;;;;;;;;;;;;;;;;;;5030591;28;19926;-56
2023/01/30 16:27:26;;;;;;;;;;;;;;;;;;5030339;28;19925;-57
2023/01/30 16:29:53;;;;;;;;;;;;;;;;;;5031110;28;19925;-56
2023/01/30 16:32:19;;;;;;;;;;;;;;;;;;5030374;28;19936;-56
2023/01/30 16:34:45;;;;;;;;;;;;;;;;;;5030786;28;19925;-56
2023/01/30 16:37:11;;;;;;;;;;;;;;;;;;5030322;28;19948;-57
2023/01/30 16:39:37;;;;;;;;;;;;;;;;;;5028700;28;20386;-57
2023/01/30 16:42:04;;;;;;;;;;;;;;;;;;5031820;28;20352;-58
2023/01/30 16:44:30;;;;;;;;;;;;;;;;;;5031718;28;19948;-56
2023/01/30 16:46:56;;;;;;;;;;;;;;;;;;5031801;28;20051;-56
2023/01/30 16:49:22;;;;;;;;;;;;;;;;;;5031220;28;19925;-57